sensor_id;sensor_type;location;lat;lon;timestamp;P1;durP1;ratioP1;P2;durP2;ratioP2
68633;SDS011;55625;47.072;22.192;2022-09-21T00:01:11;2.30;;;0.60;;
68633;SDS011;55625;47.072;22.192;2022-09-21T00:03:47;2.42;;;0.40;;
68633;SDS011;55625;47.072;22.192;2022-09-21T00:06:20;3.28;;;1.10;;
68633;SDS011;55625;47.072;22.192;2022-09-21T00:08:48;3.00;;;0.43;;
68633;SDS011;55625;47.072;22.192;2022-09-21T00:11:15;3.20;;;0.68;;
68633;SDS011;55625;47.072;22.192;2022-09-21T00:13:52;3.60;;;0.98;;
68633;SDS011;55625;47.072;22.192;2022-09-21T00:16:20;4.35;;;1.33;;
68633;SDS011;55625;47.072;22.192;2022-09-21T00:18:46;3.92;;;0.95;;
68633;SDS011;55625;47.072;22.192;2022-09-21T00:21:13;3.90;;;0.90;;
68633;SDS011;55625;47.072;22.192;2022-09-21T00:23:40;3.22;;;0.82;;
68633;SDS011;55625;47.072;22.192;2022-09-21T00:26:08;4.15;;;1.35;;
68633;SDS011;55625;47.072;22.192;2022-09-21T00:28:40;3.30;;;1.27;;
68633;SDS011;55625;47.072;22.192;2022-09-21T00:31:09;4.00;;;1.45;;
68633;SDS011;55625;47.072;22.192;2022-09-21T00:33:39;3.37;;;0.73;;
68633;SDS011;55625;47.072;22.192;2022-09-21T00:36:08;3.10;;;0.70;;
68633;SDS011;55625;47.072;22.192;2022-09-21T00:38:43;3.60;;;1.13;;
68633;SDS011;55625;47.072;22.192;2022-09-21T00:41:13;2.67;;;0.65;;
68633;SDS011;55625;47.072;22.192;2022-09-21T00:43:43;2.93;;;0.83;;
68633;SDS011;55625;47.072;22.192;2022-09-21T00:46:30;2.85;;;0.68;;
68633;SDS011;55625;47.072;22.192;2022-09-21T00:48:56;3.65;;;0.90;;
68633;SDS011;55625;47.072;22.192;2022-09-21T00:51:22;2.75;;;0.73;;
68633;SDS011;55625;47.072;22.192;2022-09-21T00:53:51;2.45;;;0.60;;
68633;SDS011;55625;47.072;22.192;2022-09-21T00:56:24;2.13;;;0.80;;
68633;SDS011;55625;47.072;22.192;2022-09-21T00:58:50;3.45;;;1.05;;
68633;SDS011;55625;47.072;22.192;2022-09-21T01:01:18;2.15;;;0.30;;
68633;SDS011;55625;47.072;22.192;2022-09-21T01:03:47;3.30;;;0.82;;
68633;SDS011;55625;47.072;22.192;2022-09-21T01:06:15;3.90;;;0.90;;
68633;SDS011;55625;47.072;22.192;2022-09-21T01:08:43;2.55;;;0.65;;
68633;SDS011;55625;47.072;22.192;2022-09-21T01:14:02;3.22;;;0.50;;
68633;SDS011;55625;47.072;22.192;2022-09-21T01:16:42;2.15;;;0.75;;
68633;SDS011;55625;47.072;22.192;2022-09-21T01:25:36;3.13;;;1.35;;
68633;SDS011;55625;47.072;22.192;2022-09-21T01:31:37;3.17;;;0.68;;
68633;SDS011;55625;47.072;22.192;2022-09-21T01:34:29;2.87;;;0.70;;
68633;SDS011;55625;47.072;22.192;2022-09-21T01:37:19;2.28;;;0.40;;
68633;SDS011;55625;47.072;22.192;2022-09-21T01:39:54;3.30;;;1.17;;
68633;SDS011;55625;47.072;22.192;2022-09-21T01:42:24;3.83;;;1.13;;
68633;SDS011;55625;47.072;22.192;2022-09-21T01:44:52;4.32;;;2.13;;
68633;SDS011;55625;47.072;22.192;2022-09-21T01:47:22;2.63;;;0.57;;
68633;SDS011;55625;47.072;22.192;2022-09-21T01:49:51;2.72;;;0.95;;
68633;SDS011;55625;47.072;22.192;2022-09-21T01:54:50;2.30;;;0.47;;
68633;SDS011;55625;47.072;22.192;2022-09-21T02:00:31;3.42;;;1.58;;
68633;SDS011;55625;47.072;22.192;2022-09-21T02:03:01;2.72;;;0.95;;
68633;SDS011;55625;47.072;22.192;2022-09-21T02:05:58;3.13;;;1.65;;
68633;SDS011;55625;47.072;22.192;2022-09-21T02:08:26;2.58;;;0.57;;
68633;SDS011;55625;47.072;22.192;2022-09-21T02:10:56;3.30;;;1.40;;
68633;SDS011;55625;47.072;22.192;2022-09-21T02:13:30;3.28;;;0.88;;
68633;SDS011;55625;47.072;22.192;2022-09-21T02:21:37;3.50;;;0.75;;
68633;SDS011;55625;47.072;22.192;2022-09-21T02:32:39;2.17;;;0.73;;
68633;SDS011;55625;47.072;22.192;2022-09-21T02:38:29;4.10;;;0.70;;
68633;SDS011;55625;47.072;22.192;2022-09-21T02:44:08;10.77;;;2.67;;
68633;SDS011;55625;47.072;22.192;2022-09-21T02:46:53;6.28;;;2.15;;
68633;SDS011;55625;47.072;22.192;2022-09-21T02:49:31;15.25;;;2.72;;
68633;SDS011;55625;47.072;22.192;2022-09-21T02:52:03;18.67;;;3.93;;
68633;SDS011;55625;47.072;22.192;2022-09-21T02:54:36;22.55;;;5.57;;
68633;SDS011;55625;47.072;22.192;2022-09-21T02:57:06;20.15;;;5.20;;
68633;SDS011;55625;47.072;22.192;2022-09-21T02:59:33;16.58;;;4.30;;
68633;SDS011;55625;47.072;22.192;2022-09-21T03:01:59;22.63;;;4.57;;
68633;SDS011;55625;47.072;22.192;2022-09-21T03:04:25;20.00;;;5.23;;
68633;SDS011;55625;47.072;22.192;2022-09-21T03:06:52;14.45;;;4.18;;
68633;SDS011;55625;47.072;22.192;2022-09-21T03:09:18;12.32;;;3.08;;
68633;SDS011;55625;47.072;22.192;2022-09-21T03:11:48;7.28;;;1.90;;
68633;SDS011;55625;47.072;22.192;2022-09-21T03:14:14;7.30;;;1.40;;
68633;SDS011;55625;47.072;22.192;2022-09-21T03:16:41;3.20;;;0.82;;
68633;SDS011;55625;47.072;22.192;2022-09-21T03:19:07;2.92;;;0.40;;
68633;SDS011;55625;47.072;22.192;2022-09-21T03:21:34;4.75;;;1.23;;
68633;SDS011;55625;47.072;22.192;2022-09-21T03:24:00;3.37;;;1.10;;
68633;SDS011;55625;47.072;22.192;2022-09-21T03:26:26;2.72;;;0.80;;
68633;SDS011;55625;47.072;22.192;2022-09-21T03:28:52;2.53;;;0.55;;
68633;SDS011;55625;47.072;22.192;2022-09-21T03:31:18;4.38;;;0.90;;
68633;SDS011;55625;47.072;22.192;2022-09-21T03:33:44;3.07;;;1.43;;
68633;SDS011;55625;47.072;22.192;2022-09-21T03:36:11;2.17;;;0.30;;
68633;SDS011;55625;47.072;22.192;2022-09-21T03:38:37;3.83;;;1.13;;
68633;SDS011;55625;47.072;22.192;2022-09-21T03:41:03;3.28;;;0.90;;
68633;SDS011;55625;47.072;22.192;2022-09-21T03:43:30;6.93;;;0.60;;
68633;SDS011;55625;47.072;22.192;2022-09-21T03:45:56;3.67;;;0.47;;
68633;SDS011;55625;47.072;22.192;2022-09-21T03:48:22;2.88;;;1.45;;
68633;SDS011;55625;47.072;22.192;2022-09-21T03:50:48;3.97;;;0.90;;
68633;SDS011;55625;47.072;22.192;2022-09-21T03:53:14;3.45;;;1.02;;
68633;SDS011;55625;47.072;22.192;2022-09-21T03:55:41;2.73;;;1.17;;
68633;SDS011;55625;47.072;22.192;2022-09-21T03:58:07;4.65;;;1.17;;
68633;SDS011;55625;47.072;22.192;2022-09-21T04:00:33;3.42;;;0.82;;
68633;SDS011;55625;47.072;22.192;2022-09-21T04:03:00;5.07;;;0.85;;
68633;SDS011;55625;47.072;22.192;2022-09-21T04:05:26;5.13;;;2.05;;
68633;SDS011;55625;47.072;22.192;2022-09-21T04:07:52;4.17;;;1.10;;
68633;SDS011;55625;47.072;22.192;2022-09-21T04:10:20;4.90;;;1.60;;
68633;SDS011;55625;47.072;22.192;2022-09-21T04:12:57;5.50;;;1.52;;
68633;SDS011;55625;47.072;22.192;2022-09-21T04:15:28;6.22;;;2.00;;
68633;SDS011;55625;47.072;22.192;2022-09-21T04:17:55;6.03;;;2.63;;
68633;SDS011;55625;47.072;22.192;2022-09-21T04:20:21;5.33;;;1.70;;
68633;SDS011;55625;47.072;22.192;2022-09-21T04:22:48;5.18;;;1.48;;
68633;SDS011;55625;47.072;22.192;2022-09-21T04:25:15;6.07;;;1.65;;
68633;SDS011;55625;47.072;22.192;2022-09-21T04:27:41;4.72;;;1.50;;
68633;SDS011;55625;47.072;22.192;2022-09-21T04:30:09;6.03;;;2.40;;
68633;SDS011;55625;47.072;22.192;2022-09-21T04:32:37;7.57;;;2.30;;
68633;SDS011;55625;47.072;22.192;2022-09-21T04:35:03;6.70;;;1.75;;
68633;SDS011;55625;47.072;22.192;2022-09-21T04:37:30;6.22;;;1.80;;
68633;SDS011;55625;47.072;22.192;2022-09-21T04:39:55;5.40;;;1.97;;
68633;SDS011;55625;47.072;22.192;2022-09-21T04:42:21;10.63;;;4.10;;
68633;SDS011;55625;47.072;22.192;2022-09-21T04:44:48;9.32;;;3.50;;
68633;SDS011;55625;47.072;22.192;2022-09-21T04:47:13;10.20;;;3.15;;
68633;SDS011;55625;47.072;22.192;2022-09-21T04:49:40;12.13;;;4.03;;
68633;SDS011;55625;47.072;22.192;2022-09-21T04:52:05;15.73;;;5.32;;
68633;SDS011;55625;47.072;22.192;2022-09-21T04:54:32;16.88;;;4.43;;
68633;SDS011;55625;47.072;22.192;2022-09-21T04:56:57;19.10;;;7.03;;
68633;SDS011;55625;47.072;22.192;2022-09-21T04:59:23;20.90;;;8.02;;
68633;SDS011;55625;47.072;22.192;2022-09-21T05:01:49;24.65;;;10.27;;
68633;SDS011;55625;47.072;22.192;2022-09-21T05:04:15;19.48;;;8.77;;
68633;SDS011;55625;47.072;22.192;2022-09-21T05:06:41;17.30;;;7.27;;
68633;SDS011;55625;47.072;22.192;2022-09-21T05:09:07;18.60;;;8.68;;
68633;SDS011;55625;47.072;22.192;2022-09-21T05:11:51;33.22;;;14.35;;
68633;SDS011;55625;47.072;22.192;2022-09-21T05:14:18;19.40;;;8.80;;
68633;SDS011;55625;47.072;22.192;2022-09-21T05:16:43;16.50;;;8.23;;
68633;SDS011;55625;47.072;22.192;2022-09-21T05:19:13;21.38;;;7.10;;
68633;SDS011;55625;47.072;22.192;2022-09-21T05:21:40;16.58;;;6.05;;
68633;SDS011;55625;47.072;22.192;2022-09-21T05:24:06;18.27;;;8.33;;
68633;SDS011;55625;47.072;22.192;2022-09-21T05:26:32;21.17;;;9.57;;
68633;SDS011;55625;47.072;22.192;2022-09-21T05:28:58;28.52;;;12.57;;
68633;SDS011;55625;47.072;22.192;2022-09-21T05:34:15;25.53;;;12.43;;
68633;SDS011;55625;47.072;22.192;2022-09-21T05:37:02;23.15;;;10.38;;
68633;SDS011;55625;47.072;22.192;2022-09-21T05:39:30;21.55;;;9.52;;
68633;SDS011;55625;47.072;22.192;2022-09-21T05:41:56;23.08;;;9.48;;
68633;SDS011;55625;47.072;22.192;2022-09-21T05:44:23;22.48;;;9.95;;
68633;SDS011;55625;47.072;22.192;2022-09-21T06:04:24;15.82;;;6.15;;
68633;SDS011;55625;47.072;22.192;2022-09-21T06:06:50;15.98;;;6.00;;
68633;SDS011;55625;47.072;22.192;2022-09-21T06:09:16;18.27;;;6.95;;
68633;SDS011;55625;47.072;22.192;2022-09-21T06:11:44;16.83;;;5.43;;
68633;SDS011;55625;47.072;22.192;2022-09-21T06:14:11;10.90;;;4.45;;
68633;SDS011;55625;47.072;22.192;2022-09-21T06:16:37;12.63;;;4.10;;
68633;SDS011;55625;47.072;22.192;2022-09-21T06:19:04;11.93;;;3.83;;
68633;SDS011;55625;47.072;22.192;2022-09-21T06:21:30;10.33;;;4.50;;
68633;SDS011;55625;47.072;22.192;2022-09-21T06:23:57;13.23;;;5.05;;
68633;SDS011;55625;47.072;22.192;2022-09-21T06:26:22;12.52;;;6.05;;
68633;SDS011;55625;47.072;22.192;2022-09-21T06:28:48;11.07;;;5.87;;
68633;SDS011;55625;47.072;22.192;2022-09-21T06:31:14;18.77;;;10.77;;
68633;SDS011;55625;47.072;22.192;2022-09-21T06:33:40;15.70;;;8.45;;
68633;SDS011;55625;47.072;22.192;2022-09-21T06:36:05;14.47;;;5.37;;
68633;SDS011;55625;47.072;22.192;2022-09-21T06:38:31;12.43;;;4.57;;
68633;SDS011;55625;47.072;22.192;2022-09-21T06:41:00;12.43;;;4.70;;
68633;SDS011;55625;47.072;22.192;2022-09-21T06:43:28;10.07;;;4.20;;
68633;SDS011;55625;47.072;22.192;2022-09-21T06:45:55;9.50;;;3.83;;
68633;SDS011;55625;47.072;22.192;2022-09-21T06:48:27;8.80;;;3.00;;
68633;SDS011;55625;47.072;22.192;2022-09-21T06:50:57;8.13;;;2.72;;
68633;SDS011;55625;47.072;22.192;2022-09-21T06:53:25;6.15;;;1.73;;
68633;SDS011;55625;47.072;22.192;2022-09-21T06:55:53;6.53;;;2.38;;
68633;SDS011;55625;47.072;22.192;2022-09-21T06:58:29;8.70;;;2.23;;
68633;SDS011;55625;47.072;22.192;2022-09-21T07:01:02;5.45;;;1.65;;
68633;SDS011;55625;47.072;22.192;2022-09-21T07:03:36;6.57;;;2.20;;
68633;SDS011;55625;47.072;22.192;2022-09-21T07:06:04;6.63;;;1.85;;
68633;SDS011;55625;47.072;22.192;2022-09-21T07:08:33;5.47;;;1.60;;
68633;SDS011;55625;47.072;22.192;2022-09-21T07:11:00;5.27;;;2.13;;
68633;SDS011;55625;47.072;22.192;2022-09-21T07:13:27;6.28;;;2.28;;
68633;SDS011;55625;47.072;22.192;2022-09-21T07:15:53;5.05;;;1.88;;
68633;SDS011;55625;47.072;22.192;2022-09-21T07:18:20;4.68;;;1.27;;
68633;SDS011;55625;47.072;22.192;2022-09-21T07:20:46;4.25;;;1.63;;
68633;SDS011;55625;47.072;22.192;2022-09-21T07:23:16;5.57;;;2.20;;
68633;SDS011;55625;47.072;22.192;2022-09-21T07:25:44;6.18;;;2.03;;
68633;SDS011;55625;47.072;22.192;2022-09-21T07:28:14;4.85;;;1.20;;
68633;SDS011;55625;47.072;22.192;2022-09-21T07:30:41;5.47;;;2.05;;
68633;SDS011;55625;47.072;22.192;2022-09-21T07:33:07;4.50;;;1.60;;
68633;SDS011;55625;47.072;22.192;2022-09-21T07:35:33;4.67;;;1.47;;
68633;SDS011;55625;47.072;22.192;2022-09-21T07:38:00;4.43;;;1.55;;
68633;SDS011;55625;47.072;22.192;2022-09-21T07:40:30;5.15;;;1.73;;
68633;SDS011;55625;47.072;22.192;2022-09-21T07:42:56;5.65;;;1.63;;
68633;SDS011;55625;47.072;22.192;2022-09-21T07:45:24;6.45;;;2.17;;
68633;SDS011;55625;47.072;22.192;2022-09-21T07:47:50;4.93;;;1.93;;
68633;SDS011;55625;47.072;22.192;2022-09-21T07:50:20;5.43;;;2.20;;
68633;SDS011;55625;47.072;22.192;2022-09-21T07:52:46;4.40;;;1.23;;
68633;SDS011;55625;47.072;22.192;2022-09-21T07:55:12;5.20;;;2.25;;
68633;SDS011;55625;47.072;22.192;2022-09-21T07:57:39;6.40;;;2.13;;
68633;SDS011;55625;47.072;22.192;2022-09-21T08:00:23;7.28;;;2.70;;
68633;SDS011;55625;47.072;22.192;2022-09-21T08:02:52;7.07;;;2.35;;
68633;SDS011;55625;47.072;22.192;2022-09-21T08:05:18;6.97;;;1.60;;
68633;SDS011;55625;47.072;22.192;2022-09-21T08:07:43;6.27;;;2.10;;
68633;SDS011;55625;47.072;22.192;2022-09-21T08:10:09;6.43;;;1.88;;
68633;SDS011;55625;47.072;22.192;2022-09-21T08:12:35;5.93;;;2.35;;
68633;SDS011;55625;47.072;22.192;2022-09-21T08:15:01;4.83;;;1.70;;
68633;SDS011;55625;47.072;22.192;2022-09-21T08:17:27;6.63;;;1.97;;
68633;SDS011;55625;47.072;22.192;2022-09-21T08:19:53;5.75;;;2.17;;
68633;SDS011;55625;47.072;22.192;2022-09-21T08:22:19;6.50;;;2.15;;
68633;SDS011;55625;47.072;22.192;2022-09-21T08:24:49;5.50;;;1.55;;
68633;SDS011;55625;47.072;22.192;2022-09-21T08:27:16;4.63;;;1.33;;
68633;SDS011;55625;47.072;22.192;2022-09-21T08:29:44;6.43;;;1.70;;
68633;SDS011;55625;47.072;22.192;2022-09-21T08:32:10;7.07;;;2.30;;
68633;SDS011;55625;47.072;22.192;2022-09-21T08:34:36;5.63;;;2.00;;
68633;SDS011;55625;47.072;22.192;2022-09-21T08:37:02;6.73;;;2.43;;
68633;SDS011;55625;47.072;22.192;2022-09-21T08:39:28;5.75;;;2.13;;
68633;SDS011;55625;47.072;22.192;2022-09-21T08:53:35;7.38;;;3.15;;
68633;SDS011;55625;47.072;22.192;2022-09-21T08:55:59;6.68;;;2.75;;
68633;SDS011;55625;47.072;22.192;2022-09-21T08:58:27;8.27;;;2.78;;
68633;SDS011;55625;47.072;22.192;2022-09-21T09:10:35;6.95;;;2.58;;
68633;SDS011;55625;47.072;22.192;2022-09-21T09:15:47;9.40;;;3.40;;
68633;SDS011;55625;47.072;22.192;2022-09-21T09:18:50;5.57;;;2.58;;
68633;SDS011;55625;47.072;22.192;2022-09-21T09:21:38;6.28;;;2.35;;
68633;SDS011;55625;47.072;22.192;2022-09-21T09:24:11;4.90;;;2.03;;
68633;SDS011;55625;47.072;22.192;2022-09-21T09:26:51;5.60;;;2.35;;
68633;SDS011;55625;47.072;22.192;2022-09-21T09:29:33;5.70;;;2.73;;
68633;SDS011;55625;47.072;22.192;2022-09-21T09:32:24;6.53;;;2.10;;
68633;SDS011;55625;47.072;22.192;2022-09-21T09:38:36;6.03;;;2.30;;
68633;SDS011;55625;47.072;22.192;2022-09-21T09:44:07;5.67;;;2.23;;
68633;SDS011;55625;47.072;22.192;2022-09-21T09:47:08;5.00;;;2.20;;
68633;SDS011;55625;47.072;22.192;2022-09-21T09:52:35;6.65;;;3.53;;
68633;SDS011;55625;47.072;22.192;2022-09-21T09:55:10;6.20;;;2.42;;
68633;SDS011;55625;47.072;22.192;2022-09-21T09:57:46;5.63;;;2.93;;
68633;SDS011;55625;47.072;22.192;2022-09-21T10:00:13;9.00;;;2.10;;
68633;SDS011;55625;47.072;22.192;2022-09-21T10:02:47;5.45;;;1.92;;
68633;SDS011;55625;47.072;22.192;2022-09-21T10:08:05;4.72;;;2.15;;
68633;SDS011;55625;47.072;22.192;2022-09-21T10:10:58;4.43;;;1.77;;
68633;SDS011;55625;47.072;22.192;2022-09-21T10:13:34;4.90;;;1.38;;
68633;SDS011;55625;47.072;22.192;2022-09-21T10:18:52;4.53;;;1.80;;
68633;SDS011;55625;47.072;22.192;2022-09-21T10:24:02;4.00;;;1.37;;
68633;SDS011;55625;47.072;22.192;2022-09-21T10:26:50;5.10;;;1.75;;
68633;SDS011;55625;47.072;22.192;2022-09-21T10:29:43;2.95;;;1.10;;
68633;SDS011;55625;47.072;22.192;2022-09-21T10:34:38;3.37;;;1.53;;
68633;SDS011;55625;47.072;22.192;2022-09-21T10:37:42;3.72;;;1.35;;
68633;SDS011;55625;47.072;22.192;2022-09-21T10:42:45;2.22;;;0.82;;
68633;SDS011;55625;47.072;22.192;2022-09-21T10:48:12;6.13;;;1.45;;
68633;SDS011;55625;47.072;22.192;2022-09-21T10:50:41;5.55;;;1.73;;
68633;SDS011;55625;47.072;22.192;2022-09-21T10:58:41;3.50;;;1.10;;
68633;SDS011;55625;47.072;22.192;2022-09-21T11:01:46;6.05;;;1.60;;
68633;SDS011;55625;47.072;22.192;2022-09-21T11:04:31;4.25;;;1.67;;
68633;SDS011;55625;47.072;22.192;2022-09-21T11:07:19;5.80;;;1.90;;
68633;SDS011;55625;47.072;22.192;2022-09-21T11:09:53;2.95;;;1.05;;
68633;SDS011;55625;47.072;22.192;2022-09-21T11:20:58;3.28;;;1.25;;
68633;SDS011;55625;47.072;22.192;2022-09-21T11:23:51;3.20;;;0.90;;
68633;SDS011;55625;47.072;22.192;2022-09-21T11:26:55;5.60;;;1.60;;
68633;SDS011;55625;47.072;22.192;2022-09-21T11:29:51;6.30;;;1.40;;
68633;SDS011;55625;47.072;22.192;2022-09-21T11:38:29;7.10;;;2.03;;
68633;SDS011;55625;47.072;22.192;2022-09-21T11:52:38;5.63;;;1.58;;
68633;SDS011;55625;47.072;22.192;2022-09-21T11:55:48;4.00;;;1.77;;
68633;SDS011;55625;47.072;22.192;2022-09-21T12:18:27;4.22;;;1.33;;
68633;SDS011;55625;47.072;22.192;2022-09-21T12:23:55;5.73;;;2.57;;
68633;SDS011;55625;47.072;22.192;2022-09-21T12:26:31;4.68;;;1.92;;
68633;SDS011;55625;47.072;22.192;2022-09-21T12:29:13;6.47;;;2.50;;
68633;SDS011;55625;47.072;22.192;2022-09-21T12:31:59;8.38;;;2.40;;
68633;SDS011;55625;47.072;22.192;2022-09-21T12:34:43;9.00;;;3.85;;
68633;SDS011;55625;47.072;22.192;2022-09-21T12:37:18;17.10;;;8.20;;
68633;SDS011;55625;47.072;22.192;2022-09-21T12:40:05;8.88;;;4.32;;
68633;SDS011;55625;47.072;22.192;2022-09-21T12:45:31;6.32;;;2.40;;
68633;SDS011;55625;47.072;22.192;2022-09-21T12:48:12;4.07;;;2.17;;
68633;SDS011;55625;47.072;22.192;2022-09-21T12:51:09;4.37;;;1.70;;
68633;SDS011;55625;47.072;22.192;2022-09-21T12:53:50;6.32;;;2.72;;
68633;SDS011;55625;47.072;22.192;2022-09-21T12:56:32;5.40;;;1.92;;
68633;SDS011;55625;47.072;22.192;2022-09-21T13:05:33;5.47;;;3.27;;
68633;SDS011;55625;47.072;22.192;2022-09-21T13:08:24;6.28;;;3.03;;
68633;SDS011;55625;47.072;22.192;2022-09-21T13:11:05;3.97;;;1.35;;
68633;SDS011;55625;47.072;22.192;2022-09-21T13:13:36;3.35;;;1.40;;
68633;SDS011;55625;47.072;22.192;2022-09-21T13:16:35;5.82;;;2.00;;
68633;SDS011;55625;47.072;22.192;2022-09-21T13:21:38;2.45;;;0.77;;
68633;SDS011;55625;47.072;22.192;2022-09-21T13:24:05;4.13;;;0.90;;
68633;SDS011;55625;47.072;22.192;2022-09-21T13:26:51;4.38;;;1.08;;
68633;SDS011;55625;47.072;22.192;2022-09-21T13:40:28;3.67;;;0.60;;
68633;SDS011;55625;47.072;22.192;2022-09-21T13:42:44;2.97;;;0.93;;
68633;SDS011;55625;47.072;22.192;2022-09-21T13:47:44;7.93;;;2.45;;
68633;SDS011;55625;47.072;22.192;2022-09-21T13:50:24;12.82;;;3.65;;
68633;SDS011;55625;47.072;22.192;2022-09-21T13:53:18;16.97;;;4.80;;
68633;SDS011;55625;47.072;22.192;2022-09-21T13:56:19;14.77;;;3.58;;
68633;SDS011;55625;47.072;22.192;2022-09-21T13:58:49;6.40;;;1.80;;
68633;SDS011;55625;47.072;22.192;2022-09-21T14:01:20;5.03;;;1.95;;
68633;SDS011;55625;47.072;22.192;2022-09-21T14:03:56;5.88;;;1.88;;
68633;SDS011;55625;47.072;22.192;2022-09-21T14:06:33;4.93;;;1.67;;
68633;SDS011;55625;47.072;22.192;2022-09-21T14:09:17;7.05;;;1.80;;
68633;SDS011;55625;47.072;22.192;2022-09-21T14:12:06;8.80;;;2.40;;
68633;SDS011;55625;47.072;22.192;2022-09-21T14:14:43;5.25;;;1.55;;
68633;SDS011;55625;47.072;22.192;2022-09-21T14:17:43;2.45;;;0.73;;
68633;SDS011;55625;47.072;22.192;2022-09-21T14:20:28;3.43;;;0.40;;
68633;SDS011;55625;47.072;22.192;2022-09-21T14:23:10;1.98;;;0.50;;
68633;SDS011;55625;47.072;22.192;2022-09-21T14:25:54;1.95;;;0.57;;
68633;SDS011;55625;47.072;22.192;2022-09-21T14:28:40;1.52;;;0.35;;
68633;SDS011;55625;47.072;22.192;2022-09-21T14:31:17;1.90;;;0.70;;
68633;SDS011;55625;47.072;22.192;2022-09-21T14:33:53;3.93;;;0.83;;
68633;SDS011;55625;47.072;22.192;2022-09-21T14:36:25;2.13;;;0.47;;
68633;SDS011;55625;47.072;22.192;2022-09-21T14:39:02;3.05;;;0.77;;
68633;SDS011;55625;47.072;22.192;2022-09-21T14:41:41;3.13;;;1.08;;
68633;SDS011;55625;47.072;22.192;2022-09-21T14:44:21;7.72;;;1.83;;
68633;SDS011;55625;47.072;22.192;2022-09-21T14:46:58;3.93;;;1.03;;
68633;SDS011;55625;47.072;22.192;2022-09-21T14:49:58;2.25;;;0.55;;
68633;SDS011;55625;47.072;22.192;2022-09-21T14:58:57;4.35;;;1.80;;
68633;SDS011;55625;47.072;22.192;2022-09-21T15:18:45;3.45;;;0.68;;
68633;SDS011;55625;47.072;22.192;2022-09-21T15:23:54;2.08;;;0.35;;
68633;SDS011;55625;47.072;22.192;2022-09-21T15:26:25;3.00;;;1.00;;
68633;SDS011;55625;47.072;22.192;2022-09-21T15:28:58;5.67;;;1.13;;
68633;SDS011;55625;47.072;22.192;2022-09-21T15:31:32;5.75;;;1.20;;
68633;SDS011;55625;47.072;22.192;2022-09-21T15:34:04;6.28;;;1.17;;
68633;SDS011;55625;47.072;22.192;2022-09-21T15:36:33;3.78;;;1.15;;
68633;SDS011;55625;47.072;22.192;2022-09-21T15:39:04;9.65;;;2.03;;
68633;SDS011;55625;47.072;22.192;2022-09-21T15:46:38;12.10;;;2.30;;
68633;SDS011;55625;47.072;22.192;2022-09-21T15:49:13;14.20;;;4.25;;
68633;SDS011;55625;47.072;22.192;2022-09-21T15:51:52;11.32;;;2.88;;
68633;SDS011;55625;47.072;22.192;2022-09-21T15:55:02;11.93;;;2.63;;
68633;SDS011;55625;47.072;22.192;2022-09-21T15:57:45;12.90;;;2.88;;
68633;SDS011;55625;47.072;22.192;2022-09-21T16:00:24;11.40;;;3.70;;
68633;SDS011;55625;47.072;22.192;2022-09-21T16:03:03;10.02;;;3.13;;
68633;SDS011;55625;47.072;22.192;2022-09-21T16:05:51;10.07;;;2.88;;
68633;SDS011;55625;47.072;22.192;2022-09-21T16:14:09;11.73;;;4.30;;
68633;SDS011;55625;47.072;22.192;2022-09-21T16:22:24;9.67;;;3.40;;
68633;SDS011;55625;47.072;22.192;2022-09-21T16:27:51;6.97;;;2.20;;
68633;SDS011;55625;47.072;22.192;2022-09-21T16:30:39;7.35;;;1.52;;
68633;SDS011;55625;47.072;22.192;2022-09-21T16:38:44;4.28;;;1.27;;
68633;SDS011;55625;47.072;22.192;2022-09-21T16:41:11;5.93;;;2.00;;
68633;SDS011;55625;47.072;22.192;2022-09-21T16:43:38;5.47;;;1.50;;
68633;SDS011;55625;47.072;22.192;2022-09-21T16:46:08;6.30;;;2.07;;
68633;SDS011;55625;47.072;22.192;2022-09-21T16:48:34;10.60;;;3.60;;
68633;SDS011;55625;47.072;22.192;2022-09-21T16:51:00;34.85;;;9.40;;
68633;SDS011;55625;47.072;22.192;2022-09-21T16:53:26;52.20;;;14.23;;
68633;SDS011;55625;47.072;22.192;2022-09-21T16:55:53;59.67;;;17.23;;
68633;SDS011;55625;47.072;22.192;2022-09-21T16:58:19;36.42;;;10.95;;
68633;SDS011;55625;47.072;22.192;2022-09-21T17:00:47;37.35;;;11.05;;
68633;SDS011;55625;47.072;22.192;2022-09-21T17:03:17;47.20;;;12.07;;
68633;SDS011;55625;47.072;22.192;2022-09-21T17:05:44;41.28;;;12.38;;
68633;SDS011;55625;47.072;22.192;2022-09-21T17:08:10;49.50;;;14.93;;
68633;SDS011;55625;47.072;22.192;2022-09-21T17:10:38;44.45;;;14.23;;
68633;SDS011;55625;47.072;22.192;2022-09-21T17:13:09;38.08;;;13.50;;
68633;SDS011;55625;47.072;22.192;2022-09-21T17:15:37;37.35;;;10.60;;
68633;SDS011;55625;47.072;22.192;2022-09-21T17:18:09;33.80;;;9.25;;
68633;SDS011;55625;47.072;22.192;2022-09-21T17:20:38;33.60;;;8.73;;
68633;SDS011;55625;47.072;22.192;2022-09-21T17:23:09;24.30;;;7.53;;
68633;SDS011;55625;47.072;22.192;2022-09-21T17:25:35;16.35;;;4.63;;
68633;SDS011;55625;47.072;22.192;2022-09-21T17:28:02;15.10;;;4.53;;
68633;SDS011;55625;47.072;22.192;2022-09-21T17:30:38;24.40;;;5.78;;
68633;SDS011;55625;47.072;22.192;2022-09-21T17:33:07;20.20;;;7.20;;
68633;SDS011;55625;47.072;22.192;2022-09-21T17:35:38;23.90;;;8.43;;
68633;SDS011;55625;47.072;22.192;2022-09-21T17:38:06;22.77;;;8.05;;
68633;SDS011;55625;47.072;22.192;2022-09-21T17:40:32;18.40;;;7.57;;
68633;SDS011;55625;47.072;22.192;2022-09-21T17:43:06;19.73;;;6.70;;
68633;SDS011;55625;47.072;22.192;2022-09-21T17:45:38;18.37;;;6.93;;
68633;SDS011;55625;47.072;22.192;2022-09-21T17:48:18;19.13;;;7.78;;
68633;SDS011;55625;47.072;22.192;2022-09-21T17:50:47;18.33;;;7.53;;
68633;SDS011;55625;47.072;22.192;2022-09-21T17:53:14;24.42;;;7.93;;
68633;SDS011;55625;47.072;22.192;2022-09-21T17:58:57;16.37;;;6.07;;
68633;SDS011;55625;47.072;22.192;2022-09-21T18:01:36;17.15;;;6.88;;
68633;SDS011;55625;47.072;22.192;2022-09-21T18:04:04;16.77;;;6.97;;
68633;SDS011;55625;47.072;22.192;2022-09-21T18:06:32;17.55;;;7.03;;
68633;SDS011;55625;47.072;22.192;2022-09-21T18:08:59;18.98;;;7.05;;
68633;SDS011;55625;47.072;22.192;2022-09-21T18:20:46;26.48;;;8.85;;
68633;SDS011;55625;47.072;22.192;2022-09-21T18:23:43;24.15;;;8.80;;
68633;SDS011;55625;47.072;22.192;2022-09-21T18:26:38;23.33;;;8.70;;
68633;SDS011;55625;47.072;22.192;2022-09-21T18:29:22;24.83;;;9.27;;
68633;SDS011;55625;47.072;22.192;2022-09-21T18:32:06;22.52;;;9.35;;
68633;SDS011;55625;47.072;22.192;2022-09-21T18:43:32;28.92;;;10.88;;
68633;SDS011;55625;47.072;22.192;2022-09-21T18:46:12;33.30;;;11.82;;
68633;SDS011;55625;47.072;22.192;2022-09-21T18:52:00;30.30;;;11.05;;
68633;SDS011;55625;47.072;22.192;2022-09-21T18:54:41;26.23;;;11.70;;
68633;SDS011;55625;47.072;22.192;2022-09-21T18:57:10;34.92;;;11.90;;
68633;SDS011;55625;47.072;22.192;2022-09-21T18:59:39;24.42;;;9.80;;
68633;SDS011;55625;47.072;22.192;2022-09-21T19:02:15;25.27;;;7.68;;
68633;SDS011;55625;47.072;22.192;2022-09-21T19:04:44;18.35;;;6.47;;
68633;SDS011;55625;47.072;22.192;2022-09-21T19:32:40;24.45;;;11.13;;
68633;SDS011;55625;47.072;22.192;2022-09-21T19:35:32;35.30;;;13.90;;
68633;SDS011;55625;47.072;22.192;2022-09-21T19:37:58;39.55;;;16.05;;
68633;SDS011;55625;47.072;22.192;2022-09-21T19:40:30;50.92;;;21.48;;
68633;SDS011;55625;47.072;22.192;2022-09-21T19:49:10;41.30;;;17.70;;
68633;SDS011;55625;47.072;22.192;2022-09-21T19:51:46;40.65;;;16.02;;
68633;SDS011;55625;47.072;22.192;2022-09-21T19:54:16;34.22;;;15.68;;
68633;SDS011;55625;47.072;22.192;2022-09-21T19:57:10;42.13;;;16.75;;